Time;durP1;ratioP1;P1;durP2;ratioP2;P2;SDS_P1;SDS_P2;PMS_P1;PMS_P2;Temp;Humidity;BMP_temperature;BMP_pressure;BME280_temperature;BME280_humidity;BME280_pressure;Samples;Min_cycle;Max_cycle;Signal;HPM_P1;HPM_P2
2021/04/08 00:00:11;;;;;;;5.78;2.75;;;;;;;-0.73;100.00;96511.13;1027557;29;20012;-62
2021/04/08 00:00:42;;;;;;;10.05;2.95;;;;;;;-0.71;100.00;96514.50;1027554;28;20050;-63
2021/04/08 00:01:14;;;;;;;6.00;2.90;;;;;;;-0.74;100.00;96510.28;1019992;29;20048;-63
2021/04/08 00:01:44;;;;;;;4.45;2.47;;;;;;;-0.74;100.00;96512.91;1024255;29;20016;-63
2021/04/08 00:02:15;;;;;;;7.20;2.85;;;;;;;-0.73;100.00;96524.16;1027933;29;20460;-62
2021/04/08 00:02:46;;;;;;;5.28;3.05;;;;;;;-0.72;100.00;96518.03;1023891;29;20038;-62
2021/04/08 00:03:17;;;;;;;5.68;2.70;;;;;;;-0.75;100.00;96513.81;1030737;28;20126;-62
2021/04/08 00:03:47;;;;;;;6.18;2.58;;;;;;;-0.77;100.00;96511.34;1019705;29;20111;-62
2021/04/08 00:04:18;;;;;;;6.63;2.63;;;;;;;-0.73;100.00;96519.81;1023903;29;20015;-62
2021/04/08 00:04:49;;;;;;;7.45;3.10;;;;;;;-0.72;100.00;96516.25;1019900;29;20299;-62
2021/04/08 00:05:19;;;;;;;6.75;2.83;;;;;;;-0.73;100.00;96519.81;1023873;29;20042;-61
2021/04/08 00:05:50;;;;;;;5.43;2.65;;;;;;;-0.71;100.00;96524.94;1019944;29;20042;-61
2021/04/08 00:06:20;;;;;;;5.97;2.95;;;;;;;-0.72;100.00;96521.47;1019981;29;20020;-62
2021/04/08 00:06:51;;;;;;;7.50;2.72;;;;;;;-0.70;100.00;96519.59;1027749;28;20495;-62
2021/04/08 00:07:22;;;;;;;4.80;3.00;;;;;;;-0.76;100.00;96520.81;1031829;28;20093;-61
2021/04/08 00:07:53;;;;;;;7.10;3.13;;;;;;;-0.69;100.00;96521.28;1019967;29;20016;-61
2021/04/08 00:08:23;;;;;;;5.80;2.55;;;;;;;-0.72;100.00;96523.25;1031864;28;20427;-62
2021/04/08 00:08:54;;;;;;;10.35;3.17;;;;;;;-0.70;100.00;96524.00;1027796;28;20416;-61
2021/04/08 00:09:25;;;;;;;13.52;3.38;;;;;;;-0.72;100.00;96526.69;1031849;28;20102;-61
2021/04/08 00:09:55;;;;;;;5.15;2.75;;;;;;;-0.69;100.00;96525.69;1027857;28;20025;-62
2021/04/08 00:10:26;;;;;;;5.78;2.90;;;;;;;-0.68;100.00;96525.59;1023835;29;20019;-62
2021/04/08 00:10:57;;;;;;;7.45;3.40;;;;;;;-0.70;100.00;96524.81;1023785;29;20668;-62
2021/04/08 00:11:28;;;;;;;5.30;2.60;;;;;;;-0.69;100.00;96520.47;1015899;29;20035;-61
2021/04/08 00:11:59;;;;;;;7.72;3.08;;;;;;;-0.69;100.00;96528.28;1027827;28;20015;-62
2021/04/08 00:12:29;;;;;;;5.63;2.80;;;;;;;-0.70;100.00;96530.03;1023783;28;20015;-62
2021/04/08 00:13:00;;;;;;;7.85;2.90;;;;;;;-0.68;100.00;96529.94;1035752;28;20496;-61
2021/04/08 00:13:31;;;;;;;9.35;3.30;;;;;;;-0.66;100.00;96523.72;1031664;28;20029;-62
2021/04/08 00:14:02;;;;;;;5.25;2.88;;;;;;;-0.78;100.00;96501.81;1031642;28;20019;-61
2021/04/08 00:14:33;;;;;;;8.20;2.90;;;;;;;-0.67;100.00;96527.25;1027807;28;20362;-62
2021/04/08 00:15:13;;;;;;;6.50;3.10;;;;;;;-0.67;100.00;96526.41;1027641;28;20032;-61
2021/04/08 00:15:44;;;;;;;5.78;3.20;;;;;;;-0.66;100.00;96525.47;1027812;28;20080;-62
2021/04/08 00:16:14;;;;;;;7.90;3.25;;;;;;;-0.68;100.00;96528.19;1023855;29;20118;-62
2021/04/08 00:16:45;;;;;;;4.60;2.67;;;;;;;-0.65;100.00;96527.16;1027885;28;20014;-62
2021/04/08 00:17:16;;;;;;;6.32;2.70;;;;;;;-0.63;100.00;96523.53;1027775;28;20429;-60
2021/04/08 00:17:47;;;;;;;6.18;2.97;;;;;;;-0.65;100.00;96529.75;1019915;28;20508;-63
2021/04/08 00:18:17;;;;;;;10.27;3.25;;;;;;;-0.67;100.00;96534.25;1027769;28;20500;-62
2021/04/08 00:18:48;;;;;;;4.78;3.00;;;;;;;-0.64;100.00;96528.84;1019832;29;20015;-63
2021/04/08 00:19:19;;;;;;;6.90;2.97;;;;;;;-0.61;100.00;96531.25;1027616;28;20177;-61
2021/04/08 00:19:50;;;;;;;5.45;2.75;;;;;;;-0.63;100.00;96536.59;1023783;29;20147;-61
2021/04/08 00:20:21;;;;;;;6.15;2.65;;;;;;;-0.62;100.00;96533.03;1035822;28;20450;-62
2021/04/08 00:20:52;;;;;;;5.85;3.10;;;;;;;-0.62;100.00;96538.25;1031760;28;20018;-61
2021/04/08 00:21:22;;;;;;;8.07;3.47;;;;;;;-0.61;100.00;96536.47;1019907;29;20034;-63
2021/04/08 00:21:53;;;;;;;5.97;2.97;;;;;;;-0.61;100.00;96537.31;1035859;28;20010;-62
2021/04/08 00:22:24;;;;;;;5.45;2.60;;;;;;;-0.59;100.00;96535.47;1027838;28;20047;-63
2021/04/08 00:22:54;;;;;;;8.02;3.20;;;;;;;-0.59;100.00;96538.06;1031692;28;20029;-61
2021/04/08 00:23:25;;;;;;;4.07;2.45;;;;;;;-0.60;100.00;96540.75;1027560;28;20399;-62
2021/04/08 00:23:56;;;;;;;6.38;2.72;;;;;;;-0.63;100.00;96533.97;1027606;28;20097;-62
2021/04/08 00:24:26;;;;;;;6.45;2.78;;;;;;;-0.61;100.00;96537.31;1035851;28;20029;-62
2021/04/08 00:24:57;;;;;;;6.15;3.00;;;;;;;-0.61;100.00;96542.53;1031814;28;20412;-63
2021/04/08 00:25:28;;;;;;;6.43;3.22;;;;;;;-0.64;100.00;96537.50;1031683;28;20022;-61
2021/04/08 00:25:59;;;;;;;7.30;3.20;;;;;;;-0.67;100.00;96539.47;1035851;28;20049;-61
2021/04/08 00:26:29;;;;;;;5.00;3.25;;;;;;;-0.65;100.00;96533.19;1027717;28;20025;-62
2021/04/08 00:27:00;;;;;;;5.28;3.10;;;;;;;-0.66;100.00;96531.53;1031779;28;20023;-62
2021/04/08 00:27:31;;;;;;;7.65;3.47;;;;;;;-0.69;100.00;96531.72;1027716;28;20110;-62
2021/04/08 00:28:01;;;;;;;7.68;3.30;;;;;;;-0.77;100.00;96521.75;1023627;29;20070;-62
2021/04/08 00:28:32;;;;;;;7.05;2.90;;;;;;;-0.67;100.00;96535.06;1019840;29;20111;-62
2021/04/08 00:29:03;;;;;;;8.73;3.20;;;;;;;-0.71;100.00;96538.81;1027719;28;20465;-62
2021/04/08 00:29:33;;;;;;;5.95;3.08;;;;;;;-0.70;100.00;96531.81;1019809;29;20023;-61
2021/04/08 00:30:05;;;;;;;6.60;3.40;;;;;;;-0.71;100.00;96536.19;1019679;29;20095;-61
2021/04/08 00:30:43;;;;;;;7.60;3.15;;;;;;;-0.74;100.00;96532.94;1019815;29;20039;-62
2021/04/08 00:31:14;;;;;;;8.60;3.30;;;;;;;-0.82;100.00;96531.63;1019818;29;20020;-62
2021/04/08 00:31:44;;;;;;;6.20;3.30;;;;;;;-0.76;100.00;96533.03;1019685;29;20023;-62
2021/04/08 00:32:15;;;;;;;8.68;3.22;;;;;;;-0.72;100.00;96534.50;1023729;29;20030;-61
2021/04/08 00:32:46;;;;;;;6.10;3.20;;;;;;;-0.75;100.00;96532.06;1027820;28;20089;-62
2021/04/08 00:33:18;;;;;;;6.40;3.53;;;;;;;-0.86;100.00;96516.25;1019822;29;20138;-61
2021/04/08 00:33:49;;;;;;;6.70;3.50;;;;;;;-0.81;100.00;96537.66;1023391;29;20074;-62
2021/04/08 00:34:20;;;;;;;7.00;2.90;;;;;;;-0.83;100.00;96531.72;1035786;28;20462;-62
2021/04/08 00:34:50;;;;;;;7.55;3.22;;;;;;;-0.81;100.00;96528.06;1027873;28;20061;-62
2021/04/08 00:35:21;;;;;;;4.90;3.13;;;;;;;-0.79;100.00;96527.97;1031674;28;20033;-62
2021/04/08 00:35:52;;;;;;;6.13;3.17;;;;;;;-0.81;100.00;96533.28;1027684;28;20477;-62
2021/04/08 00:36:23;;;;;;;6.68;3.25;;;;;;;-0.79;100.00;96528.81;1027710;28;20409;-62
2021/04/08 00:36:54;;;;;;;6.85;3.00;;;;;;;-0.79;100.00;96530.59;1027663;28;20138;-61
2021/04/08 00:37:24;;;;;;;6.05;2.75;;;;;;;-0.74;100.00;96527.72;1031844;28;20061;-62
2021/04/08 00:37:55;;;;;;;8.45;3.50;;;;;;;-0.77;100.00;96529.59;1031736;28;20021;-61
2021/04/08 00:38:26;;;;;;;7.78;3.28;;;;;;;-0.76;100.00;96527.81;1031795;28;20072;-62
2021/04/08 00:38:57;;;;;;;4.63;2.90;;;;;;;-0.78;100.00;96532.28;1031771;28;20018;-62
2021/04/08 00:39:27;;;;;;;10.85;3.20;;;;;;;-0.80;100.00;96526.28;1031726;28;20554;-62
2021/04/08 00:39:58;;;;;;;7.57;2.95;;;;;;;-0.73;100.00;96531.97;1023688;29;20020;-61
2021/04/08 00:40:29;;;;;;;7.22;3.17;;;;;;;-0.70;100.00;96529.19;1031850;28;20397;-62
2021/04/08 00:41:00;;;;;;;5.10;2.85;;;;;;;-0.71;100.00;96533.59;1027797;28;20477;-61
2021/04/08 00:41:32;;;;;;;5.97;2.95;;;;;;;-0.72;100.00;96531.91;1023734;29;20441;-63
2021/04/08 00:42:03;;;;;;;6.97;3.28;;;;;;;-0.70;100.00;96530.03;1031703;28;20016;-62
2021/04/08 00:42:34;;;;;;;5.63;2.80;;;;;;;-0.71;100.00;96527.53;1027540;28;20023;-62
2021/04/08 00:43:04;;;;;;;5.38;2.80;;;;;;;-0.73;100.00;96529.38;1019735;29;20015;-62
2021/04/08 00:43:35;;;;;;;6.70;3.10;;;;;;;-0.71;100.00;96525.75;1027361;28;20026;-61
2021/04/08 00:44:06;;;;;;;6.15;2.90;;;;;;;-0.70;100.00;96529.19;1027675;28;20019;-61
2021/04/08 00:44:37;;;;;;;7.32;3.28;;;;;;;-0.71;100.00;96530.97;1023584;28;20114;-62
2021/04/08 00:45:08;;;;;;;9.23;2.90;;;;;;;-0.81;100.00;96509.00;1031725;28;20030;-61
2021/04/08 00:45:39;;;;;;;6.43;2.70;;;;;;;-0.69;100.00;96526.50;1031721;28;20022;-62
2021/04/08 00:46:10;;;;;;;4.43;2.53;;;;;;;-0.68;100.00;96527.34;1023727;29;20015;-62
2021/04/08 00:46:41;;;;;;;7.13;3.00;;;;;;;-0.65;100.00;96528.00;1039703;28;20529;-63
2021/04/08 00:47:12;;;;;;;4.32;2.90;;;;;;;-0.65;100.00;96527.16;1031759;28;20397;-62
2021/04/08 00:47:43;;;;;;;6.63;2.60;;;;;;;-0.66;100.00;96526.31;1031846;28;20018;-62
2021/04/08 00:48:13;;;;;;;7.40;2.78;;;;;;;-0.64;100.00;96526.25;1027698;28;20023;-63
2021/04/08 00:48:44;;;;;;;6.35;2.80;;;;;;;-0.62;100.00;96527.81;1027581;28;20125;-62
2021/04/08 00:49:15;;;;;;;7.82;3.17;;;;;;;-0.71;100.00;96507.50;1023680;29;20432;-61
2021/04/08 00:49:46;;;;;;;5.03;2.83;;;;;;;-0.64;100.00;96521.84;1027655;28;20022;-62
2021/04/08 00:50:17;;;;;;;4.07;2.50;;;;;;;-0.62;100.00;96530.41;1027818;28;20026;-62
2021/04/08 00:50:48;;;;;;;5.30;2.70;;;;;;;-0.62;100.00;96534.81;1023660;29;20023;-62
2021/04/08 00:51:18;;;;;;;5.85;3.13;;;;;;;-0.63;100.00;96531.38;1027646;28;20034;-61
2021/04/08 00:51:49;;;;;;;6.30;2.83;;;;;;;-0.59;100.00;96530.25;1039959;28;20100;-61
2021/04/08 00:52:20;;;;;;;5.97;2.90;;;;;;;-0.59;100.00;96532.03;1023777;29;20525;-61
2021/04/08 00:53:01;;;;;;;5.95;2.72;;;;;;;-0.58;100.00;96529.28;1023674;29;20030;-63
2021/04/08 00:53:33;;;;;;;7.50;2.95;;;;;;;-0.58;100.00;96533.69;1031536;28;20109;-61
2021/04/08 00:54:04;;;;;;;6.03;2.80;;;;;;;-0.60;100.00;96533.75;1019668;29;20506;-62
2021/04/08 00:54:35;;;;;;;11.10;3.05;;;;;;;-0.64;100.00;96516.63;1031524;28;20027;-62
2021/04/08 00:55:06;;;;;;;5.75;2.65;;;;;;;-0.55;100.00;96527.44;1023613;29;20106;-60
2021/04/08 00:55:39;;;;;;;7.38;3.00;;;;;;;-0.56;100.00;96531.81;1027799;28;20420;-61
2021/04/08 00:56:09;;;;;;;4.22;2.65;;;;;;;-0.54;100.00;96529.97;1027718;28;20047;-61
2021/04/08 00:56:41;;;;;;;6.50;3.00;;;;;;;-0.55;100.00;96527.44;1023585;29;20027;-60
2021/04/08 00:57:11;;;;;;;10.43;3.15;;;;;;;-0.52;100.00;96532.47;1031822;28;20489;-61
2021/04/08 00:57:42;;;;;;;3.95;2.42;;;;;;;-0.55;100.00;96538.72;1027614;28;20027;-62
2021/04/08 00:58:13;;;;;;;7.85;2.45;;;;;;;-0.57;100.00;96536.19;1023747;29;20278;-63
2021/04/08 00:58:44;;;;;;;5.20;2.78;;;;;;;-0.54;100.00;96540.41;1019640;29;20023;-62
2021/04/08 00:59:16;;;;;;;5.40;2.83;;;;;;;-0.50;100.00;96536.66;1019639;29;20051;-62
2021/04/08 00:59:47;;;;;;;4.35;2.85;;;;;;;-0.51;100.00;96539.38;1023678;29;20023;-62
2021/04/08 01:00:19;;;;;;;5.38;2.53;;;;;;;-0.50;100.00;96534.06;1031697;28;20026;-62
2021/04/08 01:00:49;;;;;;;10.25;3.47;;;;;;;-0.53;100.00;96533.41;1035852;28;20112;-63
2021/04/08 01:01:20;;;;;;;3.78;2.40;;;;;;;-0.54;100.00;96535.19;1028183;28;20100;-62
2021/04/08 01:01:51;;;;;;;4.13;2.83;;;;;;;-0.56;100.00;96542.25;1027736;28;20477;-63
2021/04/08 01:02:21;;;;;;;5.00;2.80;;;;;;;-0.58;100.00;96533.69;1027653;28;20097;-62
2021/04/08 01:02:52;;;;;;;7.15;2.90;;;;;;;-0.59;100.00;96534.63;1023665;28;20118;-61
2021/04/08 01:03:24;;;;;;;5.28;2.60;;;;;;;-0.66;100.00;96534.16;1031370;28;20034;-62
2021/04/08 01:03:54;;;;;;;12.50;2.80;;;;;;;-0.65;100.00;96538.41;1019444;29;20026;-63
2021/04/08 01:04:25;;;;;;;7.28;3.03;;;;;;;-0.64;100.00;96540.09;1027685;28;20017;-60
2021/04/08 01:04:57;;;;;;;6.03;2.53;;;;;;;-0.63;100.00;96540.94;1027571;28;20169;-62
2021/04/08 01:05:28;;;;;;;7.57;2.90;;;;;;;-0.65;100.00;96543.63;1027367;28;20015;-62
2021/04/08 01:05:58;;;;;;;5.47;2.78;;;;;;;-0.64;100.00;96532.28;1027266;28;20015;-61
2021/04/08 01:06:30;;;;;;;7.07;2.95;;;;;;;-0.70;100.00;96519.59;1023729;29;20015;-61
2021/04/08 01:07:01;;;;;;;5.05;2.97;;;;;;;-0.63;100.00;96538.34;1015760;29;20494;-62
2021/04/08 01:07:33;;;;;;;6.93;2.65;;;;;;;-0.63;100.00;96533.13;1023541;29;20039;-64
2021/04/08 01:08:04;;;;;;;7.45;3.22;;;;;;;-0.63;100.00;96541.81;1023616;29;20019;-61
2021/04/08 01:08:36;;;;;;;5.43;2.90;;;;;;;-0.61;100.00;96545.16;1027661;28;20006;-62
2021/04/08 01:09:06;;;;;;;6.85;3.08;;;;;;;-0.61;100.00;96531.25;1027660;28;20015;-63
2021/04/08 01:09:37;;;;;;;7.05;2.88;;;;;;;-0.62;100.00;96534.81;1027608;28;20102;-63
2021/04/08 01:10:09;;;;;;;5.72;2.70;;;;;;;-0.62;100.00;96535.63;1023646;29;20023;-62
2021/04/08 01:10:40;;;;;;;5.95;2.92;;;;;;;-0.63;100.00;96527.91;1023673;29;20417;-62
2021/04/08 01:11:12;;;;;;;7.93;3.25;;;;;;;-0.73;100.00;96519.81;1023679;29;20019;-63
2021/04/08 01:11:42;;;;;;;8.27;3.22;;;;;;;-0.67;100.00;96531.63;1027563;28;20065;-62
2021/04/08 01:12:13;;;;;;;6.78;2.90;;;;;;;-0.65;100.00;96532.38;1031638;28;20014;-61
2021/04/08 01:12:44;;;;;;;6.72;2.90;;;;;;;-0.64;100.00;96537.50;1027613;28;20550;-62
2021/04/08 01:13:16;;;;;;;6.82;2.83;;;;;;;-0.62;100.00;96529.59;1035673;28;20081;-62
2021/04/08 01:13:47;;;;;;;5.50;2.75;;;;;;;-0.63;100.00;96530.50;1031260;28;20018;-62
2021/04/08 01:14:17;;;;;;;5.45;2.83;;;;;;;-0.63;100.00;96535.72;1035714;28;20014;-63
2021/04/08 01:14:48;;;;;;;6.15;3.22;;;;;;;-0.63;100.00;96535.72;1023588;29;20477;-63
2021/04/08 01:15:19;;;;;;;5.38;2.70;;;;;;;-0.67;100.00;96535.06;1031562;28;20546;-62
2021/04/08 01:15:50;;;;;;;7.18;2.83;;;;;;;-0.69;100.00;96523.06;1031543;28;20109;-61
2021/04/08 01:16:27;;;;;;;8.95;3.22;;;;;;;-0.63;100.00;96535.72;1019798;29;20027;-62
2021/04/08 01:17:03;;;;;;;6.95;3.00;;;;;;;-0.64;100.00;96536.66;1019720;29;20038;-62
2021/04/08 01:17:53;;;;;;;5.05;3.20;;;;;;;-0.65;100.00;96533.19;1027529;28;20520;-62
2021/04/08 01:18:40;;;;;;;7.38;2.95;;;;;;;-0.62;100.00;96538.25;1027642;28;20089;-62
2021/04/08 01:19:30;;;;;;;6.30;2.95;;;;;;;-0.65;100.00;96533.19;1026688;28;20473;-63
2021/04/08 01:20:30;;;;;;;6.55;2.75;;;;;;;-0.65;100.00;96541.03;1023429;28;20043;-63
2021/04/08 01:21:10;;;;;;;5.05;2.55;;;;;;;-0.66;100.00;96539.38;1023633;29;20034;-61
2021/04/08 01:21:45;;;;;;;5.18;2.72;;;;;;;-0.67;100.00;96540.28;1023560;29;20030;-61
2021/04/08 01:22:33;;;;;;;5.25;2.78;;;;;;;-0.65;100.00;96537.59;1019606;29;20023;-61
2021/04/08 01:23:23;;;;;;;7.20;2.65;;;;;;;-0.68;100.00;96538.63;1023546;29;20098;-61
2021/04/08 01:24:13;;;;;;;5.15;2.60;;;;;;;-0.68;100.00;96542.97;1025114;28;20047;-60
2021/04/08 01:24:58;;;;;;;8.18;2.90;;;;;;;-0.66;100.00;96543.72;1024792;28;20019;-62
2021/04/08 01:25:48;;;;;;;6.65;3.45;;;;;;;-0.67;100.00;96545.50;1031581;28;20547;-61
2021/04/08 01:26:28;;;;;;;5.85;2.80;;;;;;;-0.66;100.00;96548.94;1032737;28;20122;-62
2021/04/08 01:27:08;;;;;;;6.32;3.25;;;;;;;-0.74;100.00;96540.75;1035648;28;20112;-62
2021/04/08 01:27:50;;;;;;;8.82;3.42;;;;;;;-0.64;100.00;96555.75;1027716;28;20070;-63
2021/04/08 01:28:35;;;;;;;7.07;2.78;;;;;;;-0.60;100.00;96546.81;1023496;29;20027;-62
2021/04/08 01:29:25;;;;;;;6.63;2.83;;;;;;;-0.64;100.00;96544.50;1020406;29;20082;-62
2021/04/08 01:30:03;;;;;;;4.68;2.40;;;;;;;-0.65;100.00;96548.84;1024254;28;20504;-62
2021/04/08 01:30:46;;;;;;;9.02;2.65;;;;;;;-0.65;100.00;96543.63;1027583;28;20019;-61
2021/04/08 01:31:17;;;;;;;5.20;2.65;;;;;;;-0.63;100.00;96544.41;1023444;29;20123;-62
2021/04/08 01:31:48;;;;;;;6.28;2.80;;;;;;;-0.64;100.00;96540.09;1023689;29;20026;-62
2021/04/08 01:32:18;;;;;;;4.43;2.17;;;;;;;-0.62;100.00;96543.47;1031476;28;20053;-62
2021/04/08 01:32:51;;;;;;;5.55;2.45;;;;;;;-0.62;100.00;96547.84;1027734;28;20490;-62
2021/04/08 01:33:34;;;;;;;4.88;2.70;;;;;;;-0.60;100.00;96544.19;1031605;28;20019;-62
2021/04/08 01:34:09;;;;;;;7.32;2.83;;;;;;;-0.60;100.00;96546.81;1027496;28;20019;-62
2021/04/08 01:34:41;;;;;;;4.50;2.13;;;;;;;-0.59;100.00;96542.44;1027575;28;20138;-61
2021/04/08 01:35:12;;;;;;;5.45;3.00;;;;;;;-0.60;100.00;96544.19;1023615;29;20054;-62
2021/04/08 01:35:42;;;;;;;6.18;2.67;;;;;;;-0.59;100.00;96545.88;1019675;29;20024;-60
2021/04/08 01:36:23;;;;;;;6.53;3.72;;;;;;;-0.55;100.00;96553.53;1015793;29;20033;-62
2021/04/08 01:36:54;;;;;;;6.15;2.50;;;;;;;-0.53;100.00;96552.50;1021092;29;20072;-60
2021/04/08 01:37:39;;;;;;;7.60;2.53;;;;;;;-0.57;100.00;96554.44;1029174;28;20256;-62
2021/04/08 01:38:17;;;;;;;7.20;2.80;;;;;;;-0.54;100.00;96547.38;1027682;28;20011;-62
2021/04/08 01:38:52;;;;;;;7.55;2.92;;;;;;;-0.51;100.00;96552.41;1027653;28;20027;-62
2021/04/08 01:39:23;;;;;;;5.03;2.58;;;;;;;-0.50;100.00;96551.50;1027618;28;20109;-61
2021/04/08 01:39:55;;;;;;;6.45;2.67;;;;;;;-0.50;100.00;96547.09;1035680;28;20057;-61
2021/04/08 01:40:26;;;;;;;8.30;2.53;;;;;;;-0.48;100.00;96554.84;1023459;28;20506;-62
2021/04/08 01:40:56;;;;;;;5.50;2.70;;;;;;;-0.49;100.00;96556.59;1027608;28;20022;-61
2021/04/08 01:41:27;;;;;;;7.85;2.63;;;;;;;-0.49;100.00;96558.38;1027632;28;20469;-63
2021/04/08 01:41:58;;;;;;;6.38;2.50;;;;;;;-0.52;100.00;96551.56;1027657;28;20039;-62
2021/04/08 01:42:29;;;;;;;6.53;3.00;;;;;;;-0.51;100.00;96555.03;1023451;29;20130;-61
2021/04/08 01:43:00;;;;;;;6.70;2.83;;;;;;;-0.57;100.00;96536.19;1027521;28;20015;-62
2021/04/08 01:43:35;;;;;;;7.45;2.92;;;;;;;-0.50;100.00;96554.09;1031242;28;20018;-61
2021/04/08 01:44:08;;;;;;;7.60;2.75;;;;;;;-0.51;100.00;96555.03;1027450;28;20023;-61
2021/04/08 01:44:39;;;;;;;6.50;2.92;;;;;;;-0.54;100.00;96547.38;1031497;28;20381;-62
2021/04/08 01:45:11;;;;;;;7.93;3.00;;;;;;;-0.48;100.00;96558.28;1023564;29;20015;-61
2021/04/08 01:45:41;;;;;;;5.88;2.58;;;;;;;-0.48;100.00;96557.44;1027601;28;20065;-61
2021/04/08 01:46:13;;;;;;;4.90;2.40;;;;;;;-0.48;100.00;96555.66;1023656;28;20528;-62
2021/04/08 01:46:44;;;;;;;7.05;3.08;;;;;;;-0.45;100.00;96562.50;1019601;29;20095;-63
2021/04/08 01:47:15;;;;;;;6.68;2.63;;;;;;;-0.48;100.00;96565.28;1023555;29;20065;-62
2021/04/08 01:47:46;;;;;;;6.72;2.25;;;;;;;-0.46;100.00;96558.19;1027627;28;20011;-62
2021/04/08 01:48:16;;;;;;;5.95;2.42;;;;;;;-0.46;100.00;96563.41;1027556;28;20082;-61
2021/04/08 01:48:49;;;;;;;5.60;2.35;;;;;;;-0.45;100.00;96570.31;1027478;28;20023;-61
2021/04/08 01:49:20;;;;;;;4.95;2.40;;;;;;;-0.43;100.00;96571.06;1035624;28;20026;-62
2021/04/08 01:49:51;;;;;;;5.28;2.58;;;;;;;-0.45;100.00;96560.72;1027579;28;20022;-62
2021/04/08 01:50:22;;;;;;;5.20;2.20;;;;;;;-0.45;100.00;96565.09;1023592;29;20527;-61
2021/04/08 01:50:56;;;;;;;5.43;2.55;;;;;;;-0.44;100.00;96566.75;1023562;29;20027;-63
2021/04/08 01:51:27;;;;;;;7.28;2.30;;;;;;;-0.45;100.00;96565.94;1027525;28;20026;-62
2021/04/08 01:51:58;;;;;;;6.18;3.05;;;;;;;-0.44;100.00;96561.53;1032400;28;20058;-62
2021/04/08 01:52:28;;;;;;;7.68;3.30;;;;;;;-0.45;100.00;96572.91;1031670;28;20021;-62
2021/04/08 01:52:59;;;;;;;8.57;2.70;;;;;;;-0.46;100.00;96568.63;1023499;29;20074;-62
2021/04/08 01:53:31;;;;;;;6.47;3.50;;;;;;;-0.45;100.00;96568.53;1027409;28;20514;-61
2021/04/08 01:54:03;;;;;;;5.00;2.35;;;;;;;-0.44;100.00;96571.97;1027503;28;20045;-62
2021/04/08 01:54:35;;;;;;;9.20;3.03;;;;;;;-0.42;100.00;96564.88;1023553;29;20015;-62
2021/04/08 01:55:07;;;;;;;10.32;2.97;;;;;;;-0.50;100.00;96572.34;1039494;28;20037;-62
2021/04/08 01:55:38;;;;;;;6.20;2.67;;;;;;;-0.47;100.00;96573.00;1031627;28;20061;-63
2021/04/08 01:56:09;;;;;;;6.47;2.40;;;;;;;-0.46;100.00;96572.06;1023609;29;20016;-63
2021/04/08 01:56:40;;;;;;;6.10;2.42;;;;;;;-0.45;100.00;96572.91;1031447;28;20052;-63
2021/04/08 01:57:12;;;;;;;5.78;2.80;;;;;;;-0.45;100.00;96573.75;1027422;28;20082;-62
2021/04/08 01:57:43;;;;;;;6.63;3.13;;;;;;;-0.45;100.00;96576.38;1031569;28;20105;-62
2021/04/08 01:58:14;;;;;;;6.28;2.53;;;;;;;-0.47;100.00;96569.53;1031459;28;20587;-62
2021/04/08 01:58:45;;;;;;;7.63;2.63;;;;;;;-0.47;100.00;96577.38;1031540;28;20069;-62
2021/04/08 01:59:16;;;;;;;7.25;3.30;;;;;;;-0.52;100.00;96569.84;1031554;28;20022;-62
2021/04/08 01:59:47;;;;;;;9.98;2.92;;;;;;;-0.58;100.00;96571.03;1031597;28;20048;-63
2021/04/08 02:00:20;;;;;;;5.22;3.13;;;;;;;-0.56;100.00;96576.16;1027603;28;20045;-63
2021/04/08 02:00:51;;;;;;;8.23;3.10;;;;;;;-0.59;100.00;96574.59;1027549;28;20101;-63
2021/04/08 02:01:22;;;;;;;7.32;3.10;;;;;;;-0.57;100.00;96570.09;1019529;29;20027;-64
2021/04/08 02:01:53;;;;;;;5.30;3.03;;;;;;;-0.54;100.00;96576.91;1027577;28;20018;-62
2021/04/08 02:02:25;;;;;;;7.03;3.00;;;;;;;-0.55;100.00;96577.00;1027602;28;20026;-63
2021/04/08 02:02:56;;;;;;;8.05;3.35;;;;;;;-0.51;100.00;96578.50;1019554;29;20051;-61
2021/04/08 02:03:27;;;;;;;7.05;2.90;;;;;;;-0.51;100.00;96576.72;1031308;28;20152;-62
2021/04/08 02:03:57;;;;;;;5.80;3.33;;;;;;;-0.53;100.00;96580.38;1023333;28;20512;-61
2021/04/08 02:04:29;;;;;;;5.03;3.08;;;;;;;-0.54;100.00;96583.88;1035638;28;20061;-62
2021/04/08 02:04:59;;;;;;;5.88;3.05;;;;;;;-0.55;100.00;96579.63;1023541;29;20029;-62
2021/04/08 02:05:30;;;;;;;6.80;3.50;;;;;;;-0.54;100.00;96582.13;1031484;28;20041;-61
2021/04/08 02:06:01;;;;;;;14.35;4.80;;;;;;;-0.61;100.00;96573.84;1023596;28;20038;-61
2021/04/08 02:06:32;;;;;;;5.32;3.03;;;;;;;-0.54;100.00;96576.06;1023657;29;20389;-62
2021/04/08 02:07:02;;;;;;;7.80;3.15;;;;;;;-0.54;100.00;96582.13;1019546;29;20430;-62
2021/04/08 02:07:33;;;;;;;8.18;3.50;;;;;;;-0.59;100.00;96586.78;1023626;29;20023;-62
2021/04/08 02:08:05;;;;;;;5.20;3.42;;;;;;;-0.64;100.00;96584.44;1019588;29;20425;-61
2021/04/08 02:08:37;;;;;;;12.07;3.95;;;;;;;-0.67;100.00;96579.41;1035625;28;20029;-61
2021/04/08 02:09:08;;;;;;;8.30;3.67;;;;;;;-0.65;100.00;96581.94;1031584;28;20473;-61
2021/04/08 02:09:38;;;;;;;10.25;4.47;;;;;;;-0.65;100.00;96579.31;1027473;28;20026;-62
2021/04/08 02:10:11;;;;;;;7.57;3.78;;;;;;;-0.70;100.00;96581.34;1027536;28;20023;-62
2021/04/08 02:10:42;;;;;;;9.30;3.70;;;;;;;-0.67;100.00;96581.19;1023590;28;20062;-61
2021/04/08 02:11:13;;;;;;;6.82;4.18;;;;;;;-0.65;100.00;96587.13;1023507;28;20074;-62
2021/04/08 02:11:45;;;;;;;8.25;3.85;;;;;;;-0.68;100.00;96575.13;1031405;28;20022;-61
2021/04/08 02:12:16;;;;;;;7.25;3.63;;;;;;;-0.69;100.00;96577.84;1031560;28;20050;-62
2021/04/08 02:12:48;;;;;;;8.27;4.32;;;;;;;-0.78;100.00;96584.44;1027583;28;20038;-63
2021/04/08 02:13:19;;;;;;;9.93;4.20;;;;;;;-0.81;100.00;96579.38;1031605;28;20025;-62
2021/04/08 02:13:49;;;;;;;8.48;4.43;;;;;;;-0.84;100.00;96580.38;1023216;29;20421;-61
2021/04/08 02:14:20;;;;;;;9.10;4.03;;;;;;;-0.79;100.00;96582.75;1023517;28;20023;-61
2021/04/08 02:14:51;;;;;;;7.00;4.32;;;;;;;-0.82;100.00;96570.75;1027554;28;20168;-62
2021/04/08 02:15:23;;;;;;;7.97;4.78;;;;;;;-0.81;100.00;96579.38;1023515;29;20068;-62
2021/04/08 02:15:54;;;;;;;8.63;4.57;;;;;;;-0.80;100.00;96579.31;1019591;29;20026;-60
2021/04/08 02:16:25;;;;;;;8.98;4.40;;;;;;;-0.83;100.00;96573.44;1027441;28;20019;-63
2021/04/08 02:16:55;;;;;;;10.23;4.90;;;;;;;-0.79;100.00;96574.91;1027520;28;20054;-62
2021/04/08 02:17:26;;;;;;;15.15;5.95;;;;;;;-0.82;100.00;96580.31;1032304;28;20393;-62
2021/04/08 02:17:58;;;;;;;8.57;4.47;;;;;;;-0.90;100.00;96580.78;1028270;28;20014;-62
2021/04/08 02:18:29;;;;;;;7.95;4.40;;;;;;;-0.95;100.00;96591.44;1028407;28;20022;-62
2021/04/08 02:19:00;;;;;;;6.60;4.40;;;;;;;-0.92;100.00;96582.63;1032292;28;20025;-62
2021/04/08 02:19:32;;;;;;;8.57;4.70;;;;;;;-0.86;100.00;96577.03;1032261;28;20278;-63
2021/04/08 02:20:16;;;;;;;9.75;4.70;;;;;;;-0.83;100.00;96581.25;1024215;28;20070;-62
2021/04/08 02:20:49;;;;;;;9.50;4.75;;;;;;;-0.89;100.00;96586.81;1028299;28;20019;-62
2021/04/08 02:21:20;;;;;;;8.88;4.28;;;;;;;-0.88;100.00;96581.50;1028206;28;20014;-62
2021/04/08 02:21:50;;;;;;;8.27;4.18;;;;;;;-0.83;100.00;96581.25;1028281;28;20066;-62
2021/04/08 02:22:21;;;;;;;10.95;4.45;;;;;;;-0.93;100.00;96593.13;1036164;28;20451;-62
2021/04/08 02:22:53;;;;;;;7.95;4.32;;;;;;;-0.96;100.00;96586.31;1036287;28;20077;-62
2021/04/08 02:23:25;;;;;;;7.25;4.80;;;;;;;-1.04;100.00;96586.78;1028079;28;20030;-61
2021/04/08 02:23:55;;;;;;;8.30;4.22;;;;;;;-1.02;100.00;96584.91;1020070;29;20415;-62
2021/04/08 02:24:26;;;;;;;9.77;4.20;;;;;;;-1.01;100.00;96584.00;1024102;29;20054;-62
2021/04/08 02:24:57;;;;;;;11.73;4.60;;;;;;;-1.00;100.00;96593.47;1020285;29;20110;-61
2021/04/08 02:25:30;;;;;;;8.73;4.85;;;;;;;-1.04;100.00;96589.38;1032279;28;20101;-65
2021/04/08 02:26:01;;;;;;;9.90;4.93;;;;;;;-1.02;100.00;96584.09;1028317;28;20029;-63
2021/04/08 02:26:32;;;;;;;12.57;5.18;;;;;;;-1.01;100.00;96591.81;1032087;28;20022;-61
2021/04/08 02:27:03;;;;;;;9.77;5.20;;;;;;;-1.07;100.00;96584.34;1036355;28;20072;-62
2021/04/08 02:27:37;;;;;;;9.20;4.60;;;;;;;-1.02;100.00;96590.13;1028198;28;20106;-62
2021/04/08 02:28:08;;;;;;;9.77;4.53;;;;;;;-1.06;100.00;96591.25;1027635;28;20021;-63
2021/04/08 02:28:38;;;;;;;9.05;4.60;;;;;;;-1.00;100.00;96590.88;1032146;28;20048;-62
2021/04/08 02:29:09;;;;;;;11.63;4.55;;;;;;;-1.01;100.00;96597.03;1024263;28;20045;-62
2021/04/08 02:29:40;;;;;;;10.43;4.60;;;;;;;-0.96;100.00;96592.41;1028318;28;20040;-62
2021/04/08 02:30:13;;;;;;;10.00;4.65;;;;;;;-0.99;100.00;96599.56;1028282;28;20026;-61